Time;durP1;ratioP1;P1;durP2;ratioP2;P2;SDS_P1;SDS_P2;PMS_P1;PMS_P2;Temp;Humidity;BMP_temperature;BMP_pressure;BME280_temperature;BME280_humidity;BME280_pressure;Samples;Min_cycle;Max_cycle;Signal;HPM_P1;HPM_P2
2023/04/05 00:02:17;;;;;;;;;;;7.40;47.10;;;7.62;35.97;99268.03;4990237;28;114507;-74
2023/04/05 00:04:49;;;;;;;;;;;7.40;47.30;;;7.63;35.72;99264.19;4993766;28;114184;-74
2023/04/05 00:07:16;;;;;;;;;;;7.40;47.20;;;7.62;35.96;99261.72;5006326;28;123377;-74
2023/04/05 00:09:42;;;;;;;;;;;7.40;47.20;;;7.62;36.12;99261.72;4996021;28;123895;-74
2023/04/05 00:12:11;;;;;;;;;;;7.40;47.20;;;7.63;35.42;99263.34;5022854;27;114304;-74
2023/04/05 00:14:37;;;;;;;;;;;7.40;47.20;;;7.58;35.63;99260.66;5027485;27;114095;-74
2023/04/05 00:17:03;;;;;;;;;;;7.40;47.20;;;7.50;35.82;99257.38;5028702;27;124977;-74
2023/04/05 00:19:32;;;;;;;;;;;7.30;47.00;;;7.44;35.97;99244.75;5027898;27;123926;-74
2023/04/05 00:21:59;;;;;;;;;;;7.20;47.00;;;7.41;36.07;99252.72;4992926;28;116318;-73
2023/04/05 00:24:28;;;;;;;;;;;7.20;47.20;;;7.36;35.71;99244.50;5008869;28;114924;-74
2023/04/05 00:26:55;;;;;;;;;;;7.20;47.30;;;7.33;36.14;99242.31;4995774;28;123948;-74
2023/04/05 00:29:21;;;;;;;;;;;7.10;47.40;;;7.27;36.02;99238.75;4973819;28;122788;-74
2023/04/05 00:31:48;;;;;;;;;;;7.10;47.60;;;7.24;36.35;99236.56;4976424;28;113765;-73
2023/04/05 00:34:14;;;;;;;;;;;7.10;47.60;;;7.24;36.64;99236.56;4997112;28;114449;-73
2023/04/05 00:36:40;;;;;;;;;;;7.10;47.70;;;7.26;35.95;99226.13;4991714;28;123982;-74
2023/04/05 00:39:06;;;;;;;;;;;7.10;47.70;;;7.28;36.40;99229.41;5000471;28;124741;-74
2023/04/05 00:41:35;;;;;;;;;;;7.10;47.80;;;7.29;36.00;99231.06;4984729;28;114240;-74
2023/04/05 00:44:02;;;;;;;;;;;7.10;47.70;;;7.29;36.43;99226.38;5004317;28;113101;-74
2023/04/05 00:46:28;;;;;;;;;;;7.10;47.80;;;7.28;36.66;99226.66;4983603;28;123616;-74
2023/04/05 00:48:55;;;;;;;;;;;7.10;47.90;;;7.23;36.07;99223.94;5017600;27;123727;-74
2023/04/05 00:51:22;;;;;;;;;;;7.00;47.80;;;7.21;36.67;99231.63;5006206;27;114650;-74
2023/04/05 00:53:51;;;;;;;;;;;7.00;47.90;;;7.16;36.19;99213.22;4987516;28;112789;-74
2023/04/05 00:56:20;;;;;;;;;;;7.00;47.90;;;7.16;36.89;99215.16;5002522;28;124756;-74
2023/04/05 00:58:47;;;;;;;;;;;7.00;48.00;;;7.12;36.53;99208.56;4985792;28;123855;-74
2023/04/05 01:01:17;;;;;;;;;;;6.90;48.00;;;7.05;36.37;99215.19;4993832;28;114840;-74
2023/04/05 01:03:52;;;;;;;;;;;6.90;48.10;;;7.02;36.57;99207.50;5001234;28;113327;-74
2023/04/05 01:06:31;;;;;;;;;;;6.90;48.00;;;7.02;36.76;99198.44;5005077;28;124284;-74
2023/04/05 01:09:04;;;;;;;;;;;6.90;48.10;;;7.02;37.00;99207.50;5010367;27;124527;-75
2023/04/05 01:11:32;;;;;;;;;;;6.90;48.10;;;7.03;36.68;99200.91;5012132;28;115020;-74
2023/04/05 01:13:59;;;;;;;;;;;6.90;48.20;;;7.01;36.40;99192.13;5024577;28;114248;-74
2023/04/05 01:16:27;;;;;;;;;;;7.00;48.40;;;7.01;36.89;99194.03;4974213;28;124384;-74
2023/04/05 01:18:58;;;;;;;;;;;6.80;48.20;;;7.01;37.01;99192.13;4981978;28;123957;-74
2023/04/05 01:21:41;;;;;;;;;;;6.90;48.40;;;7.01;36.79;99194.03;4990943;28;113682;-75
2023/04/05 01:24:08;;;;;;;;;;;6.80;48.40;;;6.99;36.96;99186.09;4986106;28;113672;-74
2023/04/05 01:26:56;;;;;;;;;;;6.30;48.10;;;6.99;37.32;99180.59;4996038;28;123225;-77
2023/04/05 01:29:52;;;;;;;;;;;6.80;48.60;;;6.97;36.97;99182.81;5019688;28;122762;-76
2023/04/05 01:32:36;;;;;;;;;;;6.80;48.70;;;6.98;37.45;99180.88;5001992;28;113524;-77
2023/04/05 01:35:17;;;;;;;;;;;6.80;48.90;;;6.96;37.33;99178.41;4993010;28;113051;-75
2023/04/05 01:37:48;;;;;;;;;;;6.80;48.90;;;6.95;37.61;99179.50;4995415;28;124385;-75
2023/04/05 01:40:15;;;;;;;;;;;6.80;49.00;;;6.96;37.12;99172.06;4988393;28;123613;-76
2023/04/05 01:42:45;;;;;;;;;;;6.80;49.00;;;6.97;37.66;99176.50;5022316;28;114882;-74
2023/04/05 01:45:16;;;;;;;;;;;6.80;49.10;;;6.97;36.95;99180.06;4994991;28;113959;-74
2023/04/05 01:47:42;;;;;;;;;;;6.70;49.10;;;6.95;37.68;99175.94;5005723;28;123908;-74
2023/04/05 01:50:11;;;;;;;;;;;6.80;49.20;;;6.92;37.28;99171.81;5006270;28;123164;-74
2023/04/05 01:52:38;;;;;;;;;;;6.70;49.20;;;6.90;37.61;99176.75;5018685;28;114624;-74
2023/04/05 01:55:04;;;;;;;;;;;6.70;49.20;;;6.91;37.25;99170.19;5020698;28;114269;-74
2023/04/05 01:57:31;;;;;;;;;;;6.70;49.30;;;6.90;37.75;99171.28;4988999;28;124209;-74
2023/04/05 01:59:57;;;;;;;;;;;6.70;49.40;;;6.90;37.25;99173.19;4990788;28;123912;-74
2023/04/05 02:02:23;;;;;;;;;;;6.70;49.40;;;6.87;37.84;99171.84;4996938;28;115555;-75
2023/04/05 02:04:50;;;;;;;;;;;6.70;49.40;;;6.86;37.83;99167.47;4991204;28;115669;-74
2023/04/05 02:07:18;;;;;;;;;;;6.70;49.40;;;6.82;37.58;99158.97;4988896;28;124498;-74
2023/04/05 02:09:44;;;;;;;;;;;6.60;49.40;;;6.80;37.68;99161.16;4982333;28;124029;-74
2023/04/05 02:12:10;;;;;;;;;;;6.60;49.40;;;6.79;37.54;99158.69;4998507;28;113401;-75
2023/04/05 02:14:37;;;;;;;;;;;6.60;49.50;;;6.76;37.75;99148.25;5001948;28;113538;-75
2023/04/05 02:17:03;;;;;;;;;;;6.60;49.60;;;6.77;37.36;99158.13;4999922;28;127551;-76
2023/04/05 02:19:36;;;;;;;;;;;6.60;49.70;;;6.78;37.55;99159.78;4997819;28;123427;-75
2023/04/05 02:22:02;;;;;;;;;;;6.60;49.80;;;6.76;37.58;99164.72;5006448;28;114751;-74
2023/04/05 02:24:28;;;;;;;;;;;6.60;49.80;;;6.75;37.99;99155.69;4994531;28;114458;-74
2023/04/05 02:26:57;;;;;;;;;;;6.60;49.90;;;6.74;38.25;99153.19;4990756;28;124203;-74
2023/04/05 02:29:25;;;;;;;;;;;6.50;49.80;;;6.72;37.86;99147.19;5002357;28;124363;-74
2023/04/05 02:31:52;;;;;;;;;;;6.70;50.10;;;6.71;38.21;99149.09;5012948;27;115078;-74
2023/04/05 02:34:18;;;;;;;;;;;6.50;49.90;;;6.70;38.06;99152.13;4994154;28;112976;-74
2023/04/05 02:36:46;;;;;;;;;;;6.50;50.00;;;6.68;37.64;99152.38;5004781;28;124099;-74
2023/04/05 02:39:12;;;;;;;;;;;6.50;50.10;;;6.69;37.84;99153.22;4996868;28;124312;-74
2023/04/05 02:41:38;;;;;;;;;;;6.50;50.20;;;6.66;38.25;99151.84;5004138;28;114451;-74
2023/04/05 02:44:07;;;;;;;;;;;6.50;50.30;;;6.66;38.39;99145.53;5004975;28;113911;-74
2023/04/05 02:46:38;;;;;;;;;;;6.50;50.40;;;6.64;38.47;99162.28;4993873;28;123973;-74
2023/04/05 02:49:05;;;;;;;;;;;6.40;50.40;;;6.61;38.21;99144.47;5019264;27;123751;-74
2023/04/05 02:51:33;;;;;;;;;;;6.40;50.40;;;6.61;38.04;99154.63;4999780;28;115658;-73
2023/04/05 02:54:01;;;;;;;;;;;6.40;50.50;;;6.59;38.06;99145.84;5028604;28;114541;-74
2023/04/05 02:56:28;;;;;;;;;;;6.40;50.60;;;6.57;38.10;99148.84;4979759;28;122884;-74
2023/04/05 02:58:55;;;;;;;;;;;6.40;50.60;;;6.55;38.79;99147.47;4998254;28;124021;-74
2023/04/05 03:01:21;;;;;;;;;;;6.40;50.70;;;6.53;38.60;99147.75;5006380;28;113343;-74
2023/04/05 03:03:47;;;;;;;;;;;6.90;51.20;;;6.52;38.36;99145.28;5000196;28;113216;-74
2023/04/05 03:06:13;;;;;;;;;;;6.30;50.80;;;6.50;39.03;99150.22;5021599;28;124894;-74
2023/04/05 03:08:45;;;;;;;;;;;6.40;50.90;;;6.49;38.36;99143.91;5003213;28;124129;-74
2023/04/05 03:11:12;;;;;;;;;;;6.30;51.00;;;6.46;38.52;99138.97;5039345;27;114119;-73
2023/04/05 03:13:38;;;;;;;;;;;6.30;51.00;;;6.45;38.42;99136.50;5010154;28;113639;-74
2023/04/05 03:16:04;;;;;;;;;;;6.30;51.10;;;6.42;38.56;99140.63;5006602;28;123926;-73
2023/04/05 03:18:31;;;;;;;;;;;6.20;51.10;;;6.40;38.73;99140.09;5011268;28;124456;-74
2023/04/05 03:20:57;;;;;;;;;;;6.20;51.20;;;6.38;39.11;99131.31;5005511;28;114320;-73
2023/04/05 03:23:28;;;;;;;;;;;6.20;51.30;;;6.35;38.84;99137.34;4999727;28;114081;-74
2023/04/05 03:25:57;;;;;;;;;;;6.20;51.30;;;6.32;38.91;99137.91;5022895;28;122647;-74
2023/04/05 03:28:24;;;;;;;;;;;6.20;52.10;;;6.31;39.50;99139.00;5008499;28;122071;-74
2023/04/05 03:30:53;;;;;;;;;;;6.10;51.50;;;6.31;38.80;99139.00;5000193;28;114742;-74
2023/04/05 03:33:20;;;;;;;;;;;6.10;51.60;;;6.28;39.10;99139.56;5014553;28;113699;-74
2023/04/05 03:35:49;;;;;;;;;;;6.10;51.70;;;6.25;39.55;99140.09;5008927;28;124098;-74
2023/04/05 03:38:18;;;;;;;;;;;6.10;51.90;;;6.22;39.08;99140.66;4979498;28;123759;-73
2023/04/05 03:40:45;;;;;;;;;;;6.00;51.80;;;6.19;39.35;99142.84;5008992;28;115560;-74
2023/04/05 03:43:11;;;;;;;;;;;6.00;51.90;;;6.18;39.60;99140.41;4993177;28;114668;-74
2023/04/05 03:45:37;;;;;;;;;;;6.00;52.00;;;6.16;39.91;99137.91;4987588;28;123376;-74
2023/04/05 03:48:04;;;;;;;;;;;6.00;52.20;;;6.13;39.29;99141.22;5001405;28;123771;-74
2023/04/05 03:50:30;;;;;;;;;;;6.00;52.30;;;6.09;40.04;99140.09;5008620;28;114652;-73
2023/04/05 03:52:57;;;;;;;;;;;5.90;52.30;;;6.05;40.53;99136.28;5000234;28;113873;-74
2023/04/05 03:55:25;;;;;;;;;;;5.90;52.40;;;6.04;39.51;99145.59;5005286;28;123876;-73
2023/04/05 03:57:52;;;;;;;;;;;5.90;52.50;;;6.01;39.71;99135.16;5014682;28;123913;-73
2023/04/05 04:00:19;;;;;;;;;;;5.80;52.50;;;5.99;40.03;99140.09;5031829;27;114298;-74
2023/04/05 04:02:51;;;;;;;;;;;5.80;52.60;;;5.98;40.80;99141.22;4998847;28;113751;-73
2023/04/05 04:05:17;;;;;;;;;;;5.80;52.70;;;5.95;40.39;99130.78;5006632;28;122908;-74
2023/04/05 04:07:44;;;;;;;;;;;5.80;52.80;;;5.91;39.87;99138.72;5031242;27;123942;-74
2023/04/05 04:10:12;;;;;;;;;;;5.70;52.90;;;5.93;41.10;99133.78;5031770;27;115239;-73
2023/04/05 04:12:38;;;;;;;;;;;5.70;53.00;;;5.91;39.95;99141.47;4994232;28;113834;-74
2023/04/05 04:15:05;;;;;;;;;;;5.70;53.10;;;5.91;40.37;99135.13;5010151;28;123169;-74
2023/04/05 04:17:34;;;;;;;;;;;5.70;53.10;;;5.91;40.03;99135.97;5002978;27;123434;-73
2023/04/05 04:20:08;;;;;;;;;;;6.00;53.50;;;5.89;41.06;99140.09;4989229;28;114052;-74
2023/04/05 04:22:37;;;;;;;;;;;5.70;53.30;;;5.86;40.91;99144.19;4983652;28;113611;-74
2023/04/05 04:25:09;;;;;;;;;;;5.60;53.30;;;5.85;40.18;99138.97;4994995;28;124210;-75
2023/04/05 04:27:40;;;;;;;;;;;5.60;53.40;;;5.82;40.85;99139.53;5030691;27;123909;-74
2023/04/05 04:30:11;;;;;;;;;;;5.60;53.50;;;5.79;40.78;99143.63;5008942;28;114687;-74
2023/04/05 04:32:57;;;;;;;;;;;5.60;53.70;;;5.75;41.26;99140.63;5021769;27;113934;-74
2023/04/05 04:35:27;;;;;;;;;;;5.50;53.90;;;5.70;40.85;99139.81;4987225;28;124157;-74
2023/04/05 04:37:58;;;;;;;;;;;5.50;53.80;;;5.66;40.80;99135.94;5020057;28;123543;-75
2023/04/05 04:40:28;;;;;;;;;;;5.50;53.90;;;5.63;41.34;99137.31;5002186;28;114479;-80
2023/04/05 04:42:57;;;;;;;;;;;5.50;53.90;;;5.62;41.21;99146.63;4991473;28;113824;-75
2023/04/05 04:45:27;;;;;;;;;;;5.50;54.00;;;5.62;41.26;99141.16;4999673;28;124146;-76
2023/04/05 04:47:53;;;;;;;;;;;5.50;54.10;;;5.60;41.40;99146.06;5022959;28;124468;-74
2023/04/05 04:50:20;;;;;;;;;;;5.40;54.10;;;5.58;41.51;99136.47;4988962;28;114594;-73
2023/04/05 04:52:46;;;;;;;;;;;5.40;54.40;;;5.53;40.99;99140.03;4988998;28;112855;-73
2023/04/05 04:55:14;;;;;;;;;;;5.40;54.40;;;5.49;41.86;99149.91;5003470;28;123640;-74
2023/04/05 04:57:41;;;;;;;;;;;5.40;54.70;;;5.41;42.05;99142.19;4988586;28;123595;-74
2023/04/05 05:00:14;;;;;;;;;;;5.30;54.60;;;5.35;41.78;99151.47;4988849;28;114707;-74
2023/04/05 05:02:42;;;;;;;;;;;5.20;54.60;;;5.29;42.08;99150.63;4986352;28;113828;-74
2023/04/05 05:05:10;;;;;;;;;;;5.20;55.00;;;5.23;42.47;99149.00;5003035;28;124384;-74
2023/04/05 05:07:39;;;;;;;;;;;5.10;55.00;;;5.16;42.12;99152.00;4987224;28;124512;-74
2023/04/05 05:10:07;;;;;;;;;;;5.10;55.50;;;5.12;42.55;99153.59;4989736;28;114603;-73
2023/04/05 05:12:33;;;;;;;;;;;5.10;55.30;;;5.13;42.96;99152.53;4989941;28;113369;-73
2023/04/05 05:14:59;;;;;;;;;;;5.00;55.40;;;5.16;42.14;99162.94;5002672;28;124876;-74
2023/04/05 05:17:26;;;;;;;;;;;5.00;55.50;;;5.18;42.58;99158.00;4987965;28;125406;-73
2023/04/05 05:19:52;;;;;;;;;;;5.00;55.50;;;5.22;42.46;99159.13;4992643;28;115032;-73
2023/04/05 05:22:18;;;;;;;;;;;5.10;55.70;;;5.23;42.49;99158.03;5004455;28;114064;-74
2023/04/05 05:24:45;;;;;;;;;;;5.00;55.80;;;5.22;42.22;99170.09;4990206;28;124265;-74
2023/04/05 05:27:11;;;;;;;;;;;6.00;56.60;;;5.28;43.40;99165.44;5033488;27;124473;-74
2023/04/05 05:29:40;;;;;;;;;;;5.10;56.70;;;5.39;43.71;99166.31;5001371;27;113409;-74
2023/04/05 05:32:13;;;;;;;;;;;5.10;58.00;;;5.45;42.78;99162.47;5005200;28;114139;-74
2023/04/05 05:34:40;;;;;;;;;;;5.10;57.20;;;5.45;43.39;99154.25;5018483;28;124359;-74
2023/04/05 05:37:08;;;;;;;;;;;5.20;57.00;;;5.43;42.87;99154.53;4995697;28;123492;-73
2023/04/05 05:39:37;;;;;;;;;;;5.20;56.60;;;5.42;43.27;99154.78;5023796;27;114585;-74
2023/04/05 05:42:04;;;;;;;;;;;5.20;56.60;;;5.35;43.14;99154.22;5011542;28;112603;-73
2023/04/05 05:44:34;;;;;;;;;;;5.10;56.60;;;5.27;42.38;99148.19;5004366;28;123017;-73
2023/04/05 05:47:01;;;;;;;;;;;5.10;56.50;;;5.23;43.03;99147.06;5014385;28;123738;-73
2023/04/05 05:49:27;;;;;;;;;;;5.10;56.70;;;5.21;42.56;99146.53;4985366;28;113601;-73
2023/04/05 05:51:55;;;;;;;;;;;5.10;56.80;;;5.22;42.80;99145.44;5019829;27;114145;-74
2023/04/05 05:54:21;;;;;;;;;;;5.00;56.60;;;5.22;43.37;99150.09;4992042;28;123185;-73
2023/04/05 05:56:48;;;;;;;;;;;5.00;57.00;;;5.21;43.01;99156.66;4969049;28;123315;-73
2023/04/05 05:59:16;;;;;;;;;;;5.00;57.00;;;5.21;43.80;99153.91;4983767;28;114609;-73
2023/04/05 06:01:45;;;;;;;;;;;5.70;57.80;;;5.21;43.41;99154.75;5009777;28;113311;-73
2023/04/05 06:04:12;;;;;;;;;;;5.00;57.10;;;5.22;43.28;99159.13;4989887;28;123344;-73
2023/04/05 06:06:41;;;;;;;;;;;5.00;57.30;;;5.22;43.43;99156.38;4992920;28;124148;-74
2023/04/05 06:09:11;;;;;;;;;;;4.90;57.50;;;5.24;43.83;99156.94;5032873;27;115011;-74
2023/04/05 06:11:37;;;;;;;;;;;4.90;57.50;;;5.30;43.41;99161.34;5030006;27;114627;-72
2023/04/05 06:14:03;;;;;;;;;;;5.00;57.60;;;5.39;43.29;99160.81;5023065;27;124123;-73
2023/04/05 06:16:29;;;;;;;;;;;5.00;57.60;;;5.46;43.42;99162.22;5006383;28;123826;-73
2023/04/05 06:18:59;;;;;;;;;;;5.10;57.60;;;5.58;43.38;99155.66;4996845;28;114825;-73
2023/04/05 06:21:25;;;;;;;;;;;5.20;57.70;;;5.61;42.84;99161.41;4991168;28;113744;-73
2023/04/05 06:23:52;;;;;;;;;;;5.20;57.60;;;5.68;43.15;99163.91;4990109;28;124219;-76
2023/04/05 06:26:19;;;;;;;;;;;5.30;57.90;;;5.69;43.06;99160.88;5022452;28;123018;-73
2023/04/05 06:28:46;;;;;;;;;;;5.30;57.90;;;5.73;43.14;99164.75;4999213;28;114412;-73
2023/04/05 06:31:17;;;;;;;;;;;5.30;58.00;;;5.73;42.78;99167.47;5012039;28;114433;-73
2023/04/05 06:33:43;;;;;;;;;;;5.30;57.90;;;5.74;43.27;99166.38;4986436;28;124614;-73
2023/04/05 06:36:10;;;;;;;;;;;5.40;58.00;;;5.79;42.58;99165.56;5016367;27;123971;-73
2023/04/05 06:38:38;;;;;;;;;;;5.40;58.00;;;5.81;42.49;99154.34;5005155;28;114414;-73
2023/04/05 06:41:05;;;;;;;;;;;5.40;58.00;;;5.78;42.85;99161.19;4990380;28;114420;-74
2023/04/05 06:43:31;;;;;;;;;;;5.40;57.90;;;5.72;42.82;99160.38;4992630;28;124121;-73
2023/04/05 06:45:58;;;;;;;;;;;5.40;58.00;;;5.69;42.97;99158.13;4991384;28;123093;-73
2023/04/05 06:48:28;;;;;;;;;;;5.30;57.90;;;5.71;43.36;99163.38;5013836;28;113023;-73
2023/04/05 06:51:01;;;;;;;;;;;5.30;57.80;;;5.75;43.03;99162.56;5020584;28;113744;-73
2023/04/05 06:53:28;;;;;;;;;;;5.30;57.70;;;5.75;42.30;99165.31;4988673;28;124748;-73
2023/04/05 06:55:58;;;;;;;;;;;5.30;57.70;;;5.80;43.06;99169.13;5018641;28;123886;-73
2023/04/05 06:58:26;;;;;;;;;;;5.30;57.70;;;5.82;42.32;99170.50;5021487;28;115384;-73
2023/04/05 07:00:55;;;;;;;;;;;5.30;57.50;;;5.89;42.36;99160.09;5010907;28;113921;-73
2023/04/05 07:03:23;;;;;;;;;;;5.40;57.50;;;6.04;42.20;99162.03;4993650;28;124185;-73
2023/04/05 07:05:55;;;;;;;;;;;5.50;57.60;;;6.17;42.42;99156.00;5005565;28;123370;-73
2023/04/05 07:08:22;;;;;;;;;;;5.60;57.50;;;6.27;41.88;99163.44;4989998;28;114583;-74
2023/04/05 07:10:49;;;;;;;;;;;5.70;57.30;;;6.34;41.15;99166.72;4989566;28;113776;-74
2023/04/05 07:13:16;;;;;;;;;;;5.80;56.90;;;6.38;41.79;99167.81;4988191;28;123933;-74
2023/04/05 07:15:44;;;;;;;;;;;5.80;56.70;;;6.41;41.21;99169.19;4990297;28;125066;-73
2023/04/05 07:18:10;;;;;;;;;;;5.90;56.20;;;6.44;41.13;99171.38;4991871;28;114710;-73
2023/04/05 07:20:37;;;;;;;;;;;5.90;56.10;;;6.50;41.15;99166.69;4987935;28;114106;-74
2023/04/05 07:23:04;;;;;;;;;;;6.00;55.90;;;6.59;40.94;99168.59;5011998;27;124673;-74
2023/04/05 07:25:33;;;;;;;;;;;6.10;55.90;;;6.66;40.73;99165.56;4996694;28;123989;-73
2023/04/05 07:27:59;;;;;;;;;;;6.10;56.00;;;6.75;40.39;99163.91;5023735;27;114199;-73
2023/04/05 07:30:26;;;;;;;;;;;5.50;55.40;;;6.84;40.48;99164.97;5029846;27;114023;-73
2023/04/05 07:32:53;;;;;;;;;;;6.40;56.00;;;6.90;39.82;99160.28;5003688;28;124208;-73
2023/04/05 07:35:20;;;;;;;;;;;6.40;55.60;;;6.91;39.83;99158.38;5006263;28;123822;-73
2023/04/05 07:37:46;;;;;;;;;;;6.40;55.30;;;7.00;39.99;99159.44;4987515;28;114160;-74
2023/04/05 07:40:12;;;;;;;;;;;6.50;55.40;;;7.08;40.34;99159.69;5019635;28;114305;-72
2023/04/05 07:42:39;;;;;;;;;;;6.60;55.40;;;7.13;39.96;99156.09;4992401;28;124877;-72
2023/04/05 07:45:08;;;;;;;;;;;6.70;55.20;;;7.15;39.56;99159.41;4993246;28;124164;-72
2023/04/05 07:47:37;;;;;;;;;;;6.70;54.50;;;7.17;39.50;99168.16;5027048;27;115195;-73
2023/04/05 07:50:05;;;;;;;;;;;6.70;54.50;;;7.22;39.86;99170.06;4974695;28;113712;-72
2023/04/05 07:52:32;;;;;;;;;;;6.70;54.50;;;7.20;39.19;99166.78;5017678;28;124295;-74
2023/04/05 07:54:58;;;;;;;;;;;6.70;54.40;;;7.21;39.69;99162.94;5020819;28;123752;-72
2023/04/05 07:57:26;;;;;;;;;;;6.70;54.60;;;7.28;39.75;99163.44;5003061;28;113388;-73
2023/04/05 07:59:54;;;;;;;;;;;6.80;54.70;;;7.36;39.69;99165.63;4987870;28;114126;-74
2023/04/05 08:02:20;;;;;;;;;;;6.90;54.60;;;7.43;38.84;99166.13;4990585;28;124706;-76
2023/04/05 08:04:47;;;;;;;;;;;7.00;54.50;;;7.52;38.96;99169.94;4989994;28;124014;-73
2023/04/05 08:07:13;;;;;;;;;;;7.00;54.40;;;7.60;38.76;99163.00;4992213;28;114371;-73
2023/04/05 08:09:39;;;;;;;;;;;7.20;54.10;;;7.59;38.33;99163.31;5004229;28;113343;-73
2023/04/05 08:12:10;;;;;;;;;;;7.10;52.70;;;7.59;37.96;99161.38;4988429;28;125237;-73
2023/04/05 08:14:36;;;;;;;;;;;7.10;52.80;;;7.57;38.29;99160.81;4974171;28;123799;-73
2023/04/05 08:17:02;;;;;;;;;;;7.10;52.60;;;7.61;37.93;99161.09;4989149;28;114147;-73
2023/04/05 08:19:29;;;;;;;;;;;7.20;53.00;;;7.72;37.73;99159.91;5014444;28;113877;-73
2023/04/05 08:21:55;;;;;;;;;;;7.30;52.70;;;7.81;37.15;99149.13;4986681;28;124140;-72
2023/04/05 08:24:22;;;;;;;;;;;7.30;51.90;;;7.86;37.23;99152.66;5010139;28;124155;-75
2023/04/05 08:26:48;;;;;;;;;;;7.40;51.80;;;7.94;36.78;99148.47;4990949;28;114558;-75
2023/04/05 08:29:17;;;;;;;;;;;7.40;51.40;;;7.94;36.66;99152.06;4997562;28;114101;-74
2023/04/05 08:31:43;;;;;;;;;;;7.40;50.70;;;7.92;36.09;99156.19;4992237;28;124951;-74
2023/04/05 08:34:09;;;;;;;;;;;7.40;50.70;;;7.93;35.82;99149.59;5002060;28;122772;-74
2023/04/05 08:36:38;;;;;;;;;;;7.40;50.60;;;7.93;35.68;99150.41;4999491;28;114521;-75
2023/04/05 08:39:04;;;;;;;;;;;7.40;50.00;;;7.94;35.83;99160.31;5025665;27;114475;-76
2023/04/05 08:41:40;;;;;;;;;;;7.50;50.00;;;8.00;35.95;99152.84;5005802;28;124112;-75
2023/04/05 08:44:09;;;;;;;;;;;7.50;50.00;;;8.07;35.87;99153.34;5035511;27;124574;-74
2023/04/05 08:46:35;;;;;;;;;;;7.60;50.10;;;8.15;35.61;99158.22;4984848;28;113974;-76
2023/04/05 08:49:06;;;;;;;;;;;7.70;50.00;;;8.27;35.85;99162.53;5008610;28;112916;-75
2023/04/05 08:51:35;;;;;;;;;;;7.70;50.20;;;8.33;35.69;99156.72;4989770;28;124392;-74
2023/04/05 08:54:03;;;;;;;;;;;7.80;49.90;;;8.42;36.16;99158.88;5010394;28;122894;-75
2023/04/05 08:56:34;;;;;;;;;;;7.90;50.30;;;8.53;35.67;99160.41;4992196;28;114404;-74
2023/04/05 08:59:05;;;;;;;;;;;8.00;50.10;;;8.62;35.80;99162.25;4993810;28;114394;-74
2023/04/05 09:01:35;;;;;;;;;;;8.10;50.20;;;8.66;35.20;99156.16;4986182;28;123270;-76
2023/04/05 09:04:07;;;;;;;;;;;8.10;49.40;;;8.74;35.01;99152.78;5000641;28;123918;-76
2023/04/05 09:06:35;;;;;;;;;;;8.20;49.60;;;8.80;34.84;99151.59;5010587;28;116104;-77
2023/04/05 09:09:05;;;;;;;;;;;8.30;49.20;;;8.84;34.35;99156.22;4989226;28;113630;-73
2023/04/05 09:11:32;;;;;;;;;;;8.40;48.40;;;8.89;34.09;99146.25;5016230;28;124069;-74
2023/04/05 09:14:02;;;;;;;;;;;8.40;47.60;;;8.87;32.62;99145.75;4997326;28;125830;-74
2023/04/05 09:16:29;;;;;;;;;;;8.40;44.90;;;8.80;32.09;99155.16;4989999;28;113438;-75
2023/04/05 09:18:55;;;;;;;;;;;8.30;44.40;;;8.78;32.17;99145.53;4981036;28;114137;-76
2023/04/05 09:21:22;;;;;;;;;;;8.30;44.90;;;8.78;32.30;99149.13;4972837;28;123638;-75
2023/04/05 09:23:56;;;;;;;;;;;8.40;44.90;;;8.84;31.90;99150.72;4996003;28;123088;-76
2023/04/05 09:26:24;;;;;;;;;;;9.20;45.50;;;8.87;31.50;99152.06;4993884;28;115170;-76
2023/04/05 09:28:53;;;;;;;;;;;8.50;43.70;;;8.88;31.36;99150.13;5012531;28;114019;-76
2023/04/05 09:31:32;;;;;;;;;;;8.50;43.50;;;8.90;31.03;99153.44;5005065;28;124851;-76
2023/04/05 09:34:02;;;;;;;;;;;8.50;42.90;;;8.84;30.90;99141.66;4994905;28;123896;-75
2023/04/05 09:36:31;;;;;;;;;;;8.40;42.40;;;8.84;31.07;99145.22;5009526;28;114232;-76
2023/04/05 09:39:06;;;;;;;;;;;8.40;44.10;;;8.85;30.99;99152.34;5001970;28;113939;-75
2023/04/05 09:41:33;;;;;;;;;;;8.40;42.90;;;8.88;31.63;99150.94;4966492;28;123627;-76
2023/04/05 09:43:59;;;;;;;;;;;8.50;43.80;;;8.93;31.52;99150.09;4988720;28;123319;-74
2023/04/05 09:46:31;;;;;;;;;;;7.10;42.30;;;8.97;31.14;99142.84;4985556;28;113947;-76
2023/04/05 09:48:57;;;;;;;;;;;8.50;43.60;;;8.99;31.28;99140.63;5009753;28;112961;-75
2023/04/05 09:51:31;;;;;;;;;;;8.60;43.60;;;9.00;31.11;99139.50;5018906;27;126683;-74
2023/04/05 09:54:00;;;;;;;;;;;8.60;43.20;;;9.00;31.35;99139.50;5019643;27;124302;-74
2023/04/05 09:56:32;;;;;;;;;;;8.70;43.20;;;8.98;30.69;99136.25;4989438;28;113940;-74
2023/04/05 09:59:05;;;;;;;;;;;8.70;42.20;;;8.99;31.13;99141.44;4985500;28;114958;-75
2023/04/05 10:01:32;;;;;;;;;;;8.70;42.90;;;9.04;30.22;99126.78;4984925;28;124519;-74
2023/04/05 10:04:01;;;;;;;;;;;8.70;41.80;;;9.04;29.76;99124.03;4987587;28;125159;-73
2023/04/05 10:06:41;;;;;;;;;;;8.60;41.00;;;9.02;30.13;99129.00;4997901;28;113536;-74
2023/04/05 10:09:09;;;;;;;;;;;8.60;41.20;;;9.02;30.05;99123.50;4992650;28;115547;-73
2023/04/05 10:11:41;;;;;;;;;;;8.60;41.60;;;9.06;30.44;99127.31;5005197;28;124642;-73
2023/04/05 10:14:07;;;;;;;;;;;8.60;42.10;;;9.09;30.45;99117.66;4987826;28;124355;-72
2023/04/05 10:16:54;;;;;;;;;;;8.60;42.30;;;9.13;30.61;99115.94;4987263;28;115422;-77
2023/04/05 10:19:35;;;;;;;;;;;8.70;42.40;;;9.19;30.47;99118.34;5017560;27;115033;-74
2023/04/05 10:22:01;;;;;;;;;;;8.80;42.50;;;9.23;30.83;99108.34;4990997;28;123298;-74
2023/04/05 10:24:36;;;;;;;;;;;8.80;42.60;;;9.28;30.63;99105.53;4988237;28;123844;-73
2023/04/05 10:27:29;;;;;;;;;;;8.90;42.50;;;9.30;30.31;99102.47;5012884;27;115123;-74
2023/04/05 10:30:02;;;;;;;;;;;8.90;41.70;;;9.29;30.12;99109.94;5006384;28;113616;-74
2023/04/05 10:33:07;;;;;;;;;;;8.90;41.00;;;9.29;30.38;99104.44;5004928;28;124744;-74
2023/04/05 10:35:54;;;;;;;;;;;9.00;41.80;;;9.31;30.69;99100.53;4973407;28;124104;-75
2023/04/05 10:38:47;;;;;;;;;;;9.00;42.00;;;9.38;30.80;99092.72;5004127;28;114574;-74
2023/04/05 10:41:14;;;;;;;;;;;9.00;43.00;;;9.44;30.55;99097.06;4997382;28;113832;-74
2023/04/05 10:43:43;;;;;;;;;;;9.10;42.50;;;9.52;30.39;99099.94;5022230;27;124166;-74
2023/04/05 10:46:10;;;;;;;;;;;9.10;42.00;;;9.62;30.53;99099.00;5010138;28;124606;-73
2023/04/05 11:05:30;;;;;;;;;;;9.60;41.70;;;10.09;30.04;99080.56;4988679;28;114424;-76
2023/04/05 11:08:03;;;;;;;;;;;10.70;41.90;;;10.21;30.09;99084.78;4989523;28;125031;-78
2023/04/05 11:10:31;;;;;;;;;;;10.90;41.90;;;10.33;30.16;99074.09;5008229;28;124091;-75
2023/04/05 11:12:57;;;;;;;;;;;9.80;41.90;;;10.46;29.40;99072.50;5003425;28;114589;-75
2023/04/05 11:15:26;;;;;;;;;;;9.90;41.60;;;10.57;29.35;99072.00;5003198;28;114724;-75
2023/04/05 11:18:11;;;;;;;;;;;10.10;39.90;;;10.64;28.40;99071.59;5003239;28;124205;-73
2023/04/05 11:20:50;;;;;;;;;;;10.10;39.20;;;10.75;28.68;99063.94;4999063;28;123136;-75
2023/04/05 11:23:18;;;;;;;;;;;10.30;40.00;;;10.86;28.78;99056.25;4992874;28;114281;-73
2023/04/05 11:25:46;;;;;;;;;;;10.40;39.50;;;10.94;28.71;99061.88;4980874;28;113995;-72
2023/04/05 11:28:36;;;;;;;;;;;10.40;39.10;;;11.08;28.78;99056.31;5012753;28;123936;-75
2023/04/05 11:31:13;;;;;;;;;;;10.50;39.80;;;11.22;28.65;99050.75;4992394;28;123841;-75
2023/04/05 11:33:58;;;;;;;;;;;10.60;39.70;;;11.32;28.51;99050.53;4979043;28;114374;-74
2023/04/05 11:36:31;;;;;;;;;;;10.80;39.30;;;11.40;28.14;99047.03;4994271;28;113866;-73
2023/04/05 11:39:22;;;;;;;;;;;10.80;39.50;;;11.52;28.12;99034.59;4998066;28;124544;-73
2023/04/05 11:42:02;;;;;;;;;;;11.00;38.90;;;11.60;28.12;99040.19;4989783;28;124579;-75
2023/04/05 11:44:51;;;;;;;;;;;11.00;39.10;;;11.71;28.11;99036.06;4989246;28;114551;-73
2023/04/05 11:47:20;;;;;;;;;;;11.10;39.40;;;11.82;27.73;99036.63;4998901;28;113872;-73
2023/04/05 11:49:52;;;;;;;;;;;11.20;38.40;;;11.91;27.06;99029.22;4989146;28;123352;-83
2023/04/05 11:52:20;;;;;;;;;;;11.30;37.70;;;11.93;26.29;99031.69;4979388;28;124197;-75